createdAt,value
2022-10-31T00:01:24.949Z,66.10
2022-10-31T00:03:51.653Z,65.65
2022-10-31T00:06:21.201Z,66.53
2022-10-31T00:08:48.841Z,74.07
2022-10-31T00:11:15.453Z,68.35
2022-10-31T00:13:42.079Z,69.63
2022-10-31T00:16:18.200Z,70.90
2022-10-31T00:18:48.588Z,66.18
2022-10-31T00:21:15.653Z,66.03
2022-10-31T00:23:42.294Z,63.05
2022-10-31T00:26:09.077Z,64.82
2022-10-31T00:28:35.757Z,61.75
2022-10-31T00:31:04.598Z,59.97
2022-10-31T00:33:31.253Z,62.22
2022-10-31T00:35:57.950Z,57.83
2022-10-31T00:38:24.677Z,59.08
2022-10-31T00:40:51.271Z,62.22
2022-10-31T00:43:17.882Z,66.63
2022-10-31T00:45:44.681Z,63.28
2022-10-31T00:48:11.823Z,65.68
2022-10-31T00:50:39.289Z,62.95
2022-10-31T00:53:06.435Z,59.90
2022-10-31T00:55:33.066Z,64.60
2022-10-31T00:58:00.098Z,63.58
2022-10-31T01:00:27.325Z,60.80
2022-10-31T01:02:53.931Z,60.90
2022-10-31T01:05:21.265Z,59.38
2022-10-31T01:07:48.202Z,60.65
2022-10-31T01:10:14.943Z,60.55
2022-10-31T01:12:47.696Z,58.33
2022-10-31T01:15:17.723Z,59.28
2022-10-31T01:17:44.378Z,54.72
2022-10-31T01:20:13.204Z,58.53
2022-10-31T01:22:39.864Z,59.13
2022-10-31T01:25:07.695Z,57.58
2022-10-31T01:27:34.266Z,58.83
2022-10-31T01:30:00.985Z,57.38
2022-10-31T01:32:29.829Z,58.47
2022-10-31T01:34:56.441Z,59.20
2022-10-31T01:37:23.037Z,58.03
2022-10-31T01:39:50.153Z,59.47
2022-10-31T01:42:20.346Z,55.90
2022-10-31T01:44:57.702Z,59.83
2022-10-31T01:47:39.434Z,60.25
2022-10-31T01:50:13.430Z,55.35
2022-10-31T01:52:50.525Z,58.97
2022-10-31T01:55:29.141Z,62.90
2022-10-31T01:58:04.993Z,57.78
2022-10-31T02:00:31.816Z,60.13
2022-10-31T02:03:00.508Z,62.78
2022-10-31T02:05:31.232Z,61.80
2022-10-31T02:08:16.469Z,60.97
2022-10-31T02:10:44.901Z,60.50
2022-10-31T02:13:13.894Z,61.58
2022-10-31T02:15:43.923Z,73.57
2022-10-31T02:18:10.784Z,74.80
2022-10-31T02:20:52.210Z,62.83
2022-10-31T02:23:37.054Z,67.68
2022-10-31T02:26:18.834Z,66.57
2022-10-31T02:29:15.182Z,64.65
2022-10-31T02:31:57.978Z,72.60
2022-10-31T02:34:45.631Z,66.85
2022-10-31T02:37:14.657Z,62.75
2022-10-31T02:39:54.685Z,60.93
2022-10-31T02:42:50.237Z,70.93
2022-10-31T02:45:19.925Z,70.68
2022-10-31T02:47:50.061Z,69.43
2022-10-31T02:50:20.209Z,68.30
2022-10-31T02:52:52.330Z,64.80
2022-10-31T02:55:27.942Z,72.63
2022-10-31T02:58:00.288Z,66.60
2022-10-31T03:00:27.165Z,61.88
2022-10-31T03:02:56.619Z,63.17
2022-10-31T03:05:41.497Z,73.03
2022-10-31T03:08:42.718Z,69.60
2022-10-31T03:11:10.797Z,69.70
2022-10-31T03:13:47.966Z,67.70
2022-10-31T03:16:59.101Z,67.70
2022-10-31T03:19:34.086Z,64.70
2022-10-31T03:22:26.801Z,65.65
2022-10-31T03:24:55.492Z,59.78
2022-10-31T03:27:27.376Z,61.90
2022-10-31T03:29:57.357Z,58.85
2022-10-31T03:32:32.705Z,57.65
2022-10-31T03:35:04.025Z,58.40
2022-10-31T03:37:33.769Z,55.40
2022-10-31T03:40:03.003Z,56.10
2022-10-31T03:42:34.437Z,53.63
2022-10-31T03:45:03.937Z,52.55
2022-10-31T03:47:30.782Z,59.70
2022-10-31T03:49:58.113Z,52.53
2022-10-31T03:52:36.867Z,60.67
2022-10-31T03:55:29.417Z,59.10
2022-10-31T03:58:05.081Z,64.82
2022-10-31T04:00:34.974Z,68.07
2022-10-31T04:03:15.488Z,58.40
2022-10-31T04:05:46.913Z,54.65
2022-10-31T04:08:21.281Z,60.72
2022-10-31T04:10:50.818Z,58.47
2022-10-31T04:13:24.011Z,65.47
2022-10-31T04:15:55.093Z,57.17
2022-10-31T04:18:24.065Z,56.35
2022-10-31T04:21:00.132Z,53.87
2022-10-31T04:23:27.472Z,63.63
2022-10-31T04:25:54.110Z,60.20
2022-10-31T04:28:20.777Z,64.45
2022-10-31T04:30:47.375Z,63.38
2022-10-31T04:33:14.025Z,55.63
2022-10-31T04:35:41.091Z,58.72
2022-10-31T04:38:07.837Z,55.63
2022-10-31T04:40:34.418Z,53.67
2022-10-31T04:43:01.177Z,49.90
2022-10-31T04:45:27.989Z,63.67
2022-10-31T04:47:54.560Z,53.38
2022-10-31T04:50:22.277Z,55.78
2022-10-31T04:52:48.838Z,49.67
2022-10-31T04:55:15.922Z,48.22
2022-10-31T04:57:46.504Z,50.53
2022-10-31T05:00:15.342Z,46.47
2022-10-31T05:02:48.299Z,51.08
2022-10-31T05:05:16.520Z,49.30
2022-10-31T05:07:45.161Z,49.20
2022-10-31T05:10:14.595Z,48.45
2022-10-31T05:12:56.136Z,44.85
2022-10-31T05:15:25.357Z,42.17
2022-10-31T05:17:52.901Z,37.53
2022-10-31T05:20:21.877Z,40.10
2022-10-31T05:22:51.073Z,44.23
2022-10-31T05:25:19.272Z,45.45
2022-10-31T05:27:48.494Z,41.90
2022-10-31T05:30:18.419Z,42.65
2022-10-31T05:35:16.102Z,42.75
2022-10-31T05:37:43.302Z,41.35
2022-10-31T05:40:15.616Z,44.25
2022-10-31T05:42:43.970Z,43.67
2022-10-31T05:45:14.836Z,43.80
2022-10-31T05:47:41.472Z,51.88
2022-10-31T05:50:09.593Z,49.78
2022-10-31T05:52:36.503Z,52.95
2022-10-31T05:55:03.673Z,59.30
2022-10-31T05:57:30.658Z,64.05
2022-10-31T05:59:57.349Z,58.42
2022-10-31T06:02:24.053Z,59.75
2022-10-31T06:04:50.801Z,52.88
2022-10-31T06:07:17.525Z,50.97
2022-10-31T06:09:44.194Z,50.17
2022-10-31T06:12:10.830Z,45.38
2022-10-31T06:14:37.420Z,46.45
2022-10-31T06:17:04.028Z,48.15
2022-10-31T06:19:30.702Z,47.17
2022-10-31T06:21:57.373Z,49.75
2022-10-31T06:24:23.950Z,45.15
2022-10-31T06:26:50.525Z,45.17
2022-10-31T06:29:17.218Z,43.60
2022-10-31T06:31:43.813Z,45.92
2022-10-31T06:34:10.469Z,49.10
2022-10-31T06:36:37.083Z,46.13
2022-10-31T06:39:03.820Z,45.25
2022-10-31T06:41:30.450Z,42.28
2022-10-31T06:43:57.097Z,47.55
2022-10-31T06:46:23.769Z,43.45
2022-10-31T06:48:50.667Z,43.78
2022-10-31T06:51:17.462Z,41.17
2022-10-31T06:53:44.124Z,42.30
2022-10-31T06:56:10.760Z,42.28
2022-10-31T06:58:37.377Z,40.83
2022-10-31T07:01:04.152Z,40.72
2022-10-31T07:03:30.977Z,43.15
2022-10-31T07:05:58.021Z,40.63
2022-10-31T07:08:24.886Z,42.92
2022-10-31T07:10:53.998Z,40.30
2022-10-31T07:13:25.919Z,37.60
2022-10-31T07:16:03.656Z,37.10
2022-10-31T07:18:30.502Z,36.33
2022-10-31T07:20:57.255Z,34.00
2022-10-31T07:23:23.883Z,37.17
2022-10-31T07:25:56.302Z,36.47
2022-10-31T07:28:23.487Z,35.00
2022-10-31T07:30:54.735Z,35.40
2022-10-31T07:33:21.969Z,34.70
2022-10-31T07:35:48.875Z,36.47
2022-10-31T07:38:16.501Z,36.22
2022-10-31T07:40:43.894Z,37.95
2022-10-31T07:43:14.449Z,36.03
2022-10-31T07:45:42.173Z,39.40
2022-10-31T07:48:08.826Z,36.45
2022-10-31T07:50:35.612Z,37.28
2022-10-31T07:53:07.413Z,36.92
2022-10-31T07:55:35.069Z,37.67
2022-10-31T07:58:10.345Z,38.47
2022-10-31T08:00:38.472Z,34.63
2022-10-31T08:03:08.554Z,33.60
2022-10-31T08:05:36.178Z,33.17
2022-10-31T08:08:04.496Z,31.88
2022-10-31T08:10:31.892Z,30.92
2022-10-31T08:13:04.044Z,34.03
2022-10-31T08:15:31.121Z,30.20
2022-10-31T08:17:58.904Z,29.77
2022-10-31T08:20:25.810Z,26.63
2022-10-31T08:23:03.890Z,28.08
2022-10-31T08:25:35.633Z,26.35
2022-10-31T08:28:06.050Z,25.83
2022-10-31T08:30:35.468Z,24.60
2022-10-31T08:33:09.481Z,25.42
2022-10-31T08:35:36.316Z,27.45
2022-10-31T08:38:03.932Z,28.00
2022-10-31T08:40:32.233Z,28.00
2022-10-31T08:43:12.547Z,28.50
2022-10-31T08:45:39.199Z,28.60
2022-10-31T08:48:08.222Z,31.02
2022-10-31T08:50:36.551Z,30.55
2022-10-31T08:53:15.489Z,31.27
2022-10-31T08:55:43.451Z,32.10
2022-10-31T08:58:15.524Z,33.45
2022-10-31T09:00:43.262Z,32.53
2022-10-31T09:03:22.511Z,33.75
2022-10-31T09:05:49.435Z,32.22
2022-10-31T09:08:17.384Z,33.92
2022-10-31T09:10:47.171Z,32.38
2022-10-31T09:13:17.076Z,32.88
2022-10-31T09:18:12.477Z,34.05
2022-10-31T09:20:40.709Z,37.55
2022-10-31T09:23:16.227Z,32.25
2022-10-31T09:25:49.129Z,33.35
2022-10-31T09:28:19.022Z,31.98
2022-10-31T09:30:48.502Z,33.58
2022-10-31T09:33:15.484Z,32.58
2022-10-31T09:35:42.831Z,29.52
2022-10-31T09:38:21.661Z,33.72
2022-10-31T09:41:07.585Z,30.30
2022-10-31T09:43:52.617Z,31.95
2022-10-31T09:46:46.030Z,28.95
2022-10-31T09:49:34.058Z,29.73
2022-10-31T09:52:03.620Z,31.50
2022-10-31T09:54:43.781Z,31.23
2022-10-31T09:57:15.226Z,31.00
2022-10-31T09:59:44.470Z,31.85
2022-10-31T10:02:40.525Z,34.38
2022-10-31T10:05:12.797Z,32.03
2022-10-31T10:07:52.855Z,34.33
2022-10-31T10:10:33.531Z,36.83
2022-10-31T10:13:24.586Z,36.30
2022-10-31T10:16:34.342Z,33.88
2022-10-31T10:19:22.924Z,32.15
2022-10-31T10:22:23.564Z,31.75
2022-10-31T10:25:01.728Z,30.83
2022-10-31T10:28:02.465Z,29.33
2022-10-31T10:30:41.658Z,30.77
2022-10-31T10:33:43.811Z,31.92
2022-10-31T10:36:19.666Z,31.75
2022-10-31T10:38:55.333Z,33.03
2022-10-31T10:41:29.401Z,36.33
2022-10-31T10:44:02.522Z,37.10
2022-10-31T10:47:07.853Z,35.50
2022-10-31T10:49:50.815Z,36.50
2022-10-31T10:52:42.134Z,35.15
2022-10-31T10:55:21.097Z,33.28
2022-10-31T10:57:56.425Z,31.38
2022-10-31T11:00:24.796Z,30.52
2022-10-31T11:02:51.990Z,26.50
2022-10-31T11:05:49.365Z,28.42
2022-10-31T11:08:30.907Z,30.50
2022-10-31T11:11:26.414Z,28.45
2022-10-31T11:14:00.652Z,29.20
2022-10-31T11:16:27.188Z,31.30
2022-10-31T11:18:55.073Z,28.83
2022-10-31T11:21:28.205Z,27.88
2022-10-31T11:24:09.811Z,25.83
2022-10-31T11:26:40.544Z,26.13
2022-10-31T11:29:15.831Z,27.52
2022-10-31T11:31:45.666Z,27.00
2022-10-31T11:37:24.034Z,30.15
2022-10-31T11:40:02.952Z,29.80
2022-10-31T11:42:37.250Z,28.80
2022-10-31T11:45:15.265Z,27.00
2022-10-31T11:47:49.930Z,28.30
2022-10-31T11:50:24.176Z,30.10
2022-10-31T11:52:52.237Z,30.80
2022-10-31T11:55:36.136Z,28.85
2022-10-31T11:58:04.269Z,30.40
2022-10-31T12:00:38.364Z,30.30
2022-10-31T12:03:13.816Z,31.83
2022-10-31T12:05:42.532Z,31.38
2022-10-31T12:08:14.447Z,31.70
2022-10-31T12:10:53.253Z,28.95
2022-10-31T12:13:32.552Z,30.90
2022-10-31T12:16:09.161Z,29.15
2022-10-31T12:18:48.499Z,32.22
2022-10-31T12:21:23.251Z,32.10
2022-10-31T12:23:49.796Z,31.10
2022-10-31T12:26:24.070Z,29.25
2022-10-31T12:29:30.073Z,28.52
2022-10-31T12:32:36.854Z,28.88
2022-10-31T12:35:18.754Z,30.10
2022-10-31T12:37:53.074Z,29.45
2022-10-31T12:40:44.865Z,28.42
2022-10-31T12:43:14.342Z,29.88
2022-10-31T12:45:52.711Z,30.67
2022-10-31T12:48:41.963Z,29.40
2022-10-31T12:51:42.878Z,31.70
2022-10-31T12:54:28.105Z,29.17
2022-10-31T12:57:28.489Z,29.15
2022-10-31T13:00:04.370Z,28.70
2022-10-31T13:02:36.798Z,28.98
2022-10-31T13:05:12.179Z,28.70
2022-10-31T13:07:54.621Z,29.10
2022-10-31T13:10:27.688Z,29.40
2022-10-31T13:12:58.463Z,26.60
2022-10-31T13:15:32.353Z,24.88
2022-10-31T13:18:03.108Z,25.38
2022-10-31T13:20:34.154Z,26.25
2022-10-31T13:23:36.623Z,30.55
2022-10-31T13:26:10.471Z,28.10
2022-10-31T13:31:15.396Z,28.63
2022-10-31T13:33:52.834Z,27.42
2022-10-31T13:36:25.403Z,25.90
2022-10-31T13:38:55.000Z,26.10
2022-10-31T13:41:27.653Z,26.75
2022-10-31T13:44:02.575Z,27.98
2022-10-31T13:46:32.220Z,28.55
2022-10-31T13:48:58.927Z,30.65
2022-10-31T13:51:31.502Z,28.35
2022-10-31T13:54:08.399Z,29.25
2022-10-31T13:56:36.523Z,28.23
2022-10-31T13:59:12.055Z,26.80
2022-10-31T14:01:48.650Z,27.27
2022-10-31T14:04:24.731Z,28.20
2022-10-31T14:07:07.153Z,27.48
2022-10-31T14:09:53.270Z,26.95
2022-10-31T14:12:32.032Z,26.02
2022-10-31T14:15:23.576Z,26.13
2022-10-31T14:17:55.777Z,27.08
2022-10-31T14:20:34.959Z,26.02
2022-10-31T14:23:31.046Z,26.95
2022-10-31T14:26:27.402Z,28.40
2022-10-31T14:28:57.214Z,29.17
2022-10-31T14:31:36.764Z,26.92
2022-10-31T14:34:21.332Z,28.38
2022-10-31T14:37:06.111Z,29.20
2022-10-31T14:39:42.704Z,29.33
2022-10-31T14:42:54.550Z,31.15
2022-10-31T14:45:40.053Z,30.85
2022-10-31T14:48:15.786Z,32.67
2022-10-31T14:50:54.099Z,32.42
2022-10-31T14:53:26.401Z,31.65
2022-10-31T14:55:55.586Z,31.90
2022-10-31T15:01:03.317Z,30.83
2022-10-31T15:04:10.483Z,31.08
2022-10-31T15:06:44.038Z,30.35
2022-10-31T15:09:25.484Z,27.15
2022-10-31T15:11:52.488Z,26.25
2022-10-31T15:14:45.517Z,26.90
2022-10-31T15:17:13.324Z,28.27
2022-10-31T15:19:40.189Z,28.95
2022-10-31T15:22:10.485Z,26.50
2022-10-31T15:24:39.907Z,29.35
2022-10-31T15:27:13.766Z,29.77
2022-10-31T15:29:52.422Z,31.02
2022-10-31T15:32:21.453Z,31.42
2022-10-31T15:34:48.070Z,36.15
2022-10-31T15:37:20.440Z,36.55
2022-10-31T15:39:48.472Z,35.92
2022-10-31T15:42:41.717Z,34.25
2022-10-31T15:45:14.500Z,35.58
2022-10-31T15:47:54.693Z,34.17
2022-10-31T15:50:38.712Z,33.75
2022-10-31T15:53:36.026Z,33.20
2022-10-31T15:56:07.199Z,32.50
2022-10-31T15:58:51.449Z,32.90
2022-10-31T16:01:34.400Z,30.48
2022-10-31T16:04:13.058Z,31.42
2022-10-31T16:06:39.949Z,30.73
2022-10-31T16:09:23.118Z,31.77
2022-10-31T16:11:49.957Z,30.50
2022-10-31T16:14:25.269Z,35.35
2022-10-31T16:16:56.587Z,31.98
2022-10-31T16:19:23.142Z,33.72
2022-10-31T16:21:53.472Z,35.35
2022-10-31T16:24:32.890Z,33.90
2022-10-31T16:27:10.246Z,32.35
2022-10-31T16:29:44.862Z,31.67
2022-10-31T16:32:54.919Z,34.92
2022-10-31T16:35:40.454Z,32.67
2022-10-31T16:38:10.432Z,33.33
2022-10-31T16:40:39.093Z,33.47
2022-10-31T16:43:06.150Z,32.75
2022-10-31T16:45:34.077Z,32.65
2022-10-31T16:48:13.110Z,33.92
2022-10-31T16:50:39.865Z,34.80
2022-10-31T16:53:14.940Z,31.50
2022-10-31T16:56:03.074Z,28.65
2022-10-31T16:58:33.639Z,28.45
2022-10-31T17:01:02.114Z,28.70
2022-10-31T17:03:28.875Z,28.50
2022-10-31T17:05:56.467Z,32.38
2022-10-31T17:08:24.793Z,58.47
2022-10-31T17:10:59.176Z,61.53
2022-10-31T17:13:28.717Z,35.83
2022-10-31T17:15:58.462Z,32.92
2022-10-31T17:18:27.646Z,33.85
2022-10-31T17:21:14.340Z,33.08
2022-10-31T17:23:40.972Z,31.17
2022-10-31T17:26:10.315Z,34.47
2022-10-31T17:28:37.259Z,32.97
2022-10-31T17:31:03.999Z,34.58
2022-10-31T17:33:30.611Z,32.25
2022-10-31T17:35:57.224Z,32.35
2022-10-31T17:38:23.884Z,31.80
2022-10-31T17:40:50.470Z,30.38
2022-10-31T17:43:17.089Z,30.38
2022-10-31T17:45:43.742Z,31.98
2022-10-31T17:48:12.571Z,29.08
2022-10-31T17:50:39.273Z,33.53
2022-10-31T17:53:06.053Z,30.60
2022-10-31T17:55:36.181Z,33.90
2022-10-31T17:58:04.530Z,31.30
2022-10-31T18:00:31.278Z,30.48
2022-10-31T18:02:57.974Z,31.23
2022-10-31T18:05:24.656Z,31.13
2022-10-31T18:07:51.342Z,31.75
2022-10-31T18:10:18.262Z,30.52
2022-10-31T18:12:47.762Z,31.35
2022-10-31T18:15:15.726Z,29.75
2022-10-31T18:17:46.458Z,28.35
2022-10-31T18:20:13.382Z,26.90
2022-10-31T18:22:39.997Z,26.98
2022-10-31T18:25:06.836Z,28.33
2022-10-31T18:27:33.406Z,27.48
2022-10-31T18:30:00.022Z,27.48
2022-10-31T18:32:26.599Z,28.13
2022-10-31T18:34:53.847Z,27.60
2022-10-31T18:37:20.476Z,27.75
2022-10-31T18:39:47.062Z,27.55
2022-10-31T18:42:13.707Z,28.70
2022-10-31T18:44:40.430Z,27.98
2022-10-31T18:47:07.050Z,29.55
2022-10-31T18:49:33.632Z,29.83
2022-10-31T18:52:00.739Z,30.05
2022-10-31T18:54:27.375Z,28.20
2022-10-31T18:56:54.585Z,29.42
2022-10-31T18:59:21.221Z,33.00
2022-10-31T19:01:47.908Z,34.28
2022-10-31T19:04:14.637Z,35.05
2022-10-31T19:06:41.369Z,34.10
2022-10-31T19:09:09.794Z,33.50
2022-10-31T19:11:39.855Z,31.52
2022-10-31T19:14:08.504Z,29.73
2022-10-31T19:16:37.120Z,29.70
2022-10-31T19:19:03.907Z,30.70
2022-10-31T19:21:34.705Z,29.63
2022-10-31T19:24:02.136Z,28.95
2022-10-31T19:26:28.769Z,29.33
2022-10-31T19:28:56.662Z,29.58
2022-10-31T19:31:24.086Z,25.27
2022-10-31T19:33:51.031Z,28.65
2022-10-31T19:36:19.046Z,26.42
2022-10-31T19:38:48.566Z,29.58
2022-10-31T19:41:20.706Z,34.00
2022-10-31T19:43:47.898Z,32.55
2022-10-31T19:46:27.765Z,32.17
2022-10-31T19:49:02.621Z,31.13
2022-10-31T19:51:29.192Z,30.30
2022-10-31T19:53:55.809Z,31.25
2022-10-31T19:56:25.383Z,30.63
2022-10-31T19:58:52.127Z,32.33
2022-10-31T20:01:22.056Z,29.52
2022-10-31T20:03:50.036Z,30.85
2022-10-31T20:06:28.219Z,29.60
2022-10-31T20:08:56.211Z,30.30
2022-10-31T20:11:27.727Z,28.48
2022-10-31T20:14:00.769Z,30.08
2022-10-31T20:16:28.363Z,31.17
2022-10-31T20:18:55.434Z,33.25
2022-10-31T20:21:25.001Z,33.13
2022-10-31T20:24:03.050Z,31.48
2022-10-31T20:26:31.718Z,32.72
2022-10-31T20:28:59.386Z,33.53
2022-10-31T20:31:28.699Z,32.00
2022-10-31T20:33:55.895Z,30.80
2022-10-31T20:36:23.444Z,29.60
2022-10-31T20:38:51.645Z,28.25
2022-10-31T20:41:19.134Z,28.40
2022-10-31T20:43:46.345Z,28.70
2022-10-31T20:46:21.749Z,26.15
2022-10-31T20:48:48.590Z,28.27
2022-10-31T20:51:21.960Z,27.38
2022-10-31T20:53:50.399Z,29.02
2022-10-31T20:56:20.165Z,28.60
2022-10-31T20:58:47.539Z,27.88
2022-10-31T21:01:20.136Z,29.35
2022-10-31T21:03:48.236Z,28.98
2022-10-31T21:06:15.970Z,28.88
2022-10-31T21:08:43.185Z,29.75
2022-10-31T21:11:12.635Z,30.02
2022-10-31T21:13:42.237Z,30.33
2022-10-31T21:16:14.643Z,31.92
2022-10-31T21:18:44.030Z,32.10
2022-10-31T21:21:13.505Z,31.58
2022-10-31T21:23:40.765Z,30.48
2022-10-31T21:26:19.324Z,31.40
2022-10-31T21:28:45.939Z,27.77
2022-10-31T21:31:14.698Z,28.30
2022-10-31T21:33:42.097Z,25.20
2022-10-31T21:36:09.804Z,25.13
2022-10-31T21:38:37.160Z,25.83
2022-10-31T21:41:06.186Z,24.60
2022-10-31T21:43:36.057Z,25.60
2022-10-31T21:46:10.838Z,23.73
2022-10-31T21:48:43.499Z,24.00
2022-10-31T21:51:21.558Z,24.40
2022-10-31T21:54:07.576Z,24.00
2022-10-31T21:56:35.482Z,25.70
2022-10-31T21:59:02.676Z,25.13
2022-10-31T22:01:29.945Z,26.05
2022-10-31T22:03:57.691Z,27.50
2022-10-31T22:06:30.015Z,27.38
2022-10-31T22:08:59.200Z,28.02
2022-10-31T22:11:26.928Z,27.30
2022-10-31T22:13:53.919Z,27.67
2022-10-31T22:16:22.330Z,27.73
2022-10-31T22:18:55.595Z,28.25
2022-10-31T22:21:24.189Z,26.55
2022-10-31T22:23:52.666Z,26.58
2022-10-31T22:26:19.942Z,28.38
2022-10-31T22:28:48.770Z,25.42
2022-10-31T22:31:17.587Z,26.88
2022-10-31T22:33:45.457Z,27.95
2022-10-31T22:36:15.328Z,27.80
2022-10-31T22:41:17.194Z,25.25
2022-10-31T22:43:44.206Z,23.60
2022-10-31T22:46:23.134Z,21.38
2022-10-31T22:48:52.206Z,22.25
2022-10-31T22:51:27.004Z,23.03
2022-10-31T22:53:56.817Z,20.85
2022-10-31T22:56:26.379Z,21.35
2022-10-31T22:58:53.962Z,21.42
2022-10-31T23:01:26.975Z,21.88
2022-10-31T23:03:53.746Z,21.15
2022-10-31T23:06:23.318Z,21.23
2022-10-31T23:08:51.571Z,20.75
2022-10-31T23:11:23.626Z,22.08
2022-10-31T23:14:13.240Z,21.90
2022-10-31T23:16:53.677Z,26.30
2022-10-31T23:19:22.617Z,23.52
2022-10-31T23:21:56.495Z,25.70
2022-10-31T23:24:26.533Z,24.70
2022-10-31T23:27:09.848Z,23.95
2022-10-31T23:29:48.535Z,21.83
2022-10-31T23:32:21.449Z,22.00
2022-10-31T23:34:50.509Z,22.80
2022-10-31T23:37:18.695Z,23.07
2022-10-31T23:39:47.704Z,21.20
2022-10-31T23:42:15.575Z,21.53
2022-10-31T23:44:42.934Z,22.70
2022-10-31T23:47:09.670Z,21.20
2022-10-31T23:49:37.385Z,19.98
2022-10-31T23:52:05.361Z,20.95
2022-10-31T23:54:32.713Z,19.92
2022-10-31T23:56:59.733Z,21.88
2022-10-31T23:59:26.888Z,20.77
